Middletown, MO

9:08 PM CDT on August 22, 2014 (GMT -0500)
ALSAT Wireless | Change Station
CLOSE
Current Station
Personal Weather Station
Location: Montgomery City, MO
Elevation: 810 ft
Nearby Weather Stations
Active Advisory: Heat Advisory

Elev 810 ft 38.99 °N, 91.55 °W | Updated 2 seconds ago

Clear
Clear
80.0 °F
Feels Like 85 °F
N
0.0
Wind Variable Wind from South
Gusts 1.0 mph

Today
High -- | Low -- °F
--% Chance of Precip.
Yesterday
High -- | Low -- °F
Precip. -- in
6:25 AM 7:50 PM
Waning Crescent, 6% visible
Pressure 29.90 in
Visibility 9.0 miles
Clouds Clear
Heat Index 85 °F
Dew Point 76 °F
Humidity 89%
Rainfall 0.00 in
Snow Depth Not available.
UV 0 out of 12
Pollen 9.20 out of 12
Air Quality Not available.
Flu Activity Not available.
METAR KFYG 230155Z AUTO 00000KT 9SM CLR 27/25 A2990 RMK AO2

More Conditions Fewer Conditions

Pressure 29.90 in
Visibility 9.0 miles
Clouds Clear
Heat Index 85 °F
Dew Point 76 °F
Humidity 89%
Rainfall 0.00 in
Snow Depth Not available.
UV 0 out of 12
Pollen 9.20 out of 12
Air Quality Not available.
Flu Activity Not available.
METAR KFYG 230155Z AUTO 00000KT 9SM CLR 27/25 A2990 RMK AO2

More Conditions Fewer Conditions

10-Day Weather Forecast

Almanac

Astronomy

Aug. 22, 2014 Rise Set
Actual Time 6:25 AM CDT 7:50 PM CDT
Civil Twilight 5:57 AM CDT 8:18 PM CDT
Nautical Twilight 5:23 AM CDT 8:52 PM CDT
Astronomical Twilight 4:47 AM CDT 9:27 PM CDT
Moon 3:48 AM CDT (8/22) 5:59 PM CDT (8/22)
Length of Visible Light 14h 21m
Length of Day
13h 25m
Tomorrow will be 2m 21s shorter.
Waning Crescent, 6% of the Moon is Illuminated
Today
Waning Crescent
Aug 25
New
Sep 2
First Quarter
Sep 8
Full
Sep 15
Last Quarter

Today's Extremes

State Highs State Lows

Community

WunderPhotos

Upload Photos

1,746,348 photos uploaded!

WunderBlogs® & News

Nearby

Snow Depth

Station Depth Elevation
No new snow has been reported.

Earthquake Activity

City Distance Mag. Time & Date
No recent earthquake activity has been reported nearby.
Minimum magnitude displayed is 2.5.

Coastal Water Temperatures

Place Temperature
No Stations Reporting

Nearby Weather Stations